createdAt,value
2018-06-23T00:00:21.697Z,55.38
2018-06-23T00:05:16.140Z,56.70
2018-06-23T00:10:12.332Z,56.77
2018-06-23T00:15:06.947Z,57.63
2018-06-23T00:20:01.789Z,58.48
2018-06-23T00:24:56.330Z,59.01
2018-06-23T00:29:50.876Z,59.04
2018-06-23T00:34:45.438Z,59.66
2018-06-23T00:39:39.982Z,59.48
2018-06-23T00:44:34.538Z,59.84
2018-06-23T00:49:29.393Z,58.83
2018-06-23T00:54:23.863Z,59.52
2018-06-23T00:59:35.174Z,59.84
2018-06-23T01:04:29.730Z,60.15
2018-06-23T01:09:24.347Z,59.85
2018-06-23T01:14:19.000Z,60.30
2018-06-23T01:19:13.495Z,60.75
2018-06-23T01:24:08.132Z,60.69
2018-06-23T01:29:02.797Z,60.45
2018-06-23T01:33:57.309Z,61.02
2018-06-23T01:38:51.921Z,61.15
2018-06-23T01:43:46.537Z,60.77
2018-06-23T01:48:41.056Z,61.11
2018-06-23T01:53:35.502Z,61.19
2018-06-23T01:58:30.021Z,61.05
2018-06-23T02:03:24.540Z,61.41
2018-06-23T02:08:19.121Z,62.33
2018-06-23T02:13:13.647Z,61.86
2018-06-23T02:18:13.456Z,62.10
2018-06-23T02:23:13.189Z,62.02
2018-06-23T02:28:12.988Z,62.14
2018-06-23T02:35:15.285Z,62.13
2018-06-23T02:40:09.979Z,63.31
2018-06-23T02:45:05.278Z,62.98
2018-06-23T02:50:00.903Z,62.69
2018-06-23T02:54:55.627Z,62.36
2018-06-23T02:59:50.262Z,62.66
2018-06-23T03:04:44.824Z,62.11
2018-06-23T03:09:39.418Z,62.53
2018-06-23T03:14:33.949Z,63.11
2018-06-23T03:19:28.536Z,63.50
2018-06-23T03:24:23.085Z,63.35
2018-06-23T03:29:17.684Z,63.80
2018-06-23T03:34:12.183Z,64.05
2018-06-23T03:39:10.256Z,64.56
2018-06-23T03:44:04.924Z,64.91
2018-06-23T03:48:59.428Z,65.23
2018-06-23T03:53:53.952Z,64.74
2018-06-23T03:58:48.414Z,61.87
2018-06-23T04:03:42.962Z,57.71
2018-06-23T04:08:37.522Z,54.42
2018-06-23T04:13:32.417Z,51.83
2018-06-23T04:18:26.950Z,50.27
2018-06-23T04:23:21.465Z,47.49
2018-06-23T04:28:16.009Z,46.61
2018-06-23T04:33:10.620Z,44.76
2018-06-23T04:38:05.182Z,43.49
2018-06-23T04:42:59.762Z,42.40
2018-06-23T04:47:54.364Z,39.97
2018-06-23T04:52:48.880Z,39.72
2018-06-23T04:57:43.365Z,37.62
2018-06-23T05:02:37.920Z,36.94
2018-06-23T05:07:32.442Z,35.32
2018-06-23T05:12:26.987Z,33.58
2018-06-23T05:17:22.306Z,34.51
2018-06-23T05:22:16.806Z,33.81
2018-06-23T05:27:11.277Z,33.33
2018-06-23T05:32:05.904Z,32.96
2018-06-23T05:37:00.551Z,31.05
2018-06-23T05:41:55.085Z,31.05
2018-06-23T05:46:49.625Z,31.52
2018-06-23T05:51:44.110Z,31.13
2018-06-23T05:56:38.629Z,33.17
2018-06-23T06:01:33.222Z,30.48
2018-06-23T06:06:27.826Z,32.89
2018-06-23T06:11:22.338Z,33.65
2018-06-23T06:16:16.960Z,35.40
2018-06-23T06:21:11.564Z,33.46
2018-06-23T06:26:06.181Z,35.88
2018-06-23T06:31:00.865Z,35.98
2018-06-23T06:35:55.394Z,37.44
2018-06-23T06:40:49.917Z,39.02
2018-06-23T06:45:44.490Z,39.02
2018-06-23T06:50:38.960Z,41.19
2018-06-23T06:55:33.882Z,40.59
2018-06-23T07:00:28.456Z,39.77
2018-06-23T07:05:23.003Z,38.57
2018-06-23T07:10:17.802Z,41.07
2018-06-23T07:15:15.505Z,41.72
2018-06-23T07:20:10.395Z,41.14
2018-06-23T07:25:05.255Z,41.84
2018-06-23T07:29:59.990Z,42.18
2018-06-23T07:34:55.387Z,40.55
2018-06-23T07:39:49.929Z,41.00
2018-06-23T07:44:44.410Z,41.49
2018-06-23T07:49:39.037Z,41.50
2018-06-23T07:54:33.661Z,42.99
2018-06-23T07:59:28.129Z,42.38
2018-06-23T08:04:22.889Z,42.10
2018-06-23T08:09:18.019Z,40.97
2018-06-23T08:14:13.228Z,40.28
2018-06-23T08:19:08.521Z,38.91
2018-06-23T08:24:04.078Z,37.53
2018-06-23T08:29:00.596Z,37.06
2018-06-23T08:33:56.233Z,37.89
2018-06-23T08:38:53.539Z,36.85
2018-06-23T08:43:50.484Z,36.13
2018-06-23T08:48:45.827Z,34.56
2018-06-23T08:53:40.417Z,34.82
2018-06-23T08:58:35.073Z,34.74
2018-06-23T09:03:29.714Z,33.76
2018-06-23T09:08:24.432Z,33.27
2018-06-23T09:13:19.125Z,34.28
2018-06-23T09:18:13.770Z,34.56
2018-06-23T09:23:08.422Z,35.93
2018-06-23T09:28:03.144Z,36.65
2018-06-23T09:32:57.758Z,37.03
2018-06-23T09:37:52.415Z,37.03
2018-06-23T09:42:46.986Z,36.33
2018-06-23T09:47:42.606Z,36.67
2018-06-23T09:52:37.250Z,35.98
2018-06-23T09:57:31.837Z,34.29
2018-06-23T10:02:26.517Z,34.39
2018-06-23T10:07:21.221Z,34.70
2018-06-23T10:12:15.795Z,35.56
2018-06-23T10:17:10.566Z,36.55
2018-06-23T10:22:05.351Z,34.95
2018-06-23T10:26:59.828Z,34.83
2018-06-23T10:31:54.450Z,35.69
2018-06-23T10:36:48.950Z,34.28
2018-06-23T10:41:43.578Z,33.92
2018-06-23T10:46:38.365Z,33.80
2018-06-23T10:51:32.986Z,34.74
2018-06-23T10:56:27.539Z,34.85
2018-06-23T11:01:22.225Z,33.93
2018-06-23T11:06:16.956Z,34.69
2018-06-23T11:11:11.472Z,33.46
2018-06-23T11:16:06.257Z,33.10
2018-06-23T11:21:01.477Z,33.73
2018-06-23T11:25:56.180Z,35.52
2018-06-23T11:30:51.300Z,35.76
2018-06-23T11:35:45.948Z,36.03
2018-06-23T11:40:40.910Z,34.53
2018-06-23T11:45:35.426Z,34.79
2018-06-23T11:50:30.116Z,35.53
2018-06-23T11:55:24.865Z,34.30
2018-06-23T12:00:19.527Z,34.32
2018-06-23T12:05:14.060Z,33.79
2018-06-23T12:10:09.514Z,34.92
2018-06-23T12:15:34.056Z,33.56
2018-06-23T12:20:28.673Z,33.13
2018-06-23T12:25:23.348Z,33.04
2018-06-23T12:30:17.939Z,34.40
2018-06-23T12:35:12.531Z,35.61
2018-06-23T12:40:07.161Z,35.53
2018-06-23T12:45:01.706Z,34.81
2018-06-23T12:49:56.196Z,35.09
2018-06-23T12:54:50.726Z,34.17
2018-06-23T12:59:45.243Z,35.24
2018-06-23T13:04:39.809Z,33.71
2018-06-23T13:09:34.464Z,33.92
2018-06-23T13:14:29.298Z,34.85
2018-06-23T13:19:23.816Z,34.81
2018-06-23T13:24:18.387Z,34.54
2018-06-23T13:29:12.867Z,34.36
2018-06-23T13:34:07.441Z,33.97
2018-06-23T13:39:02.023Z,33.71
2018-06-23T13:44:21.294Z,33.81
2018-06-23T13:49:15.875Z,32.62
2018-06-23T13:54:10.517Z,32.19
2018-06-23T13:59:05.303Z,31.06
2018-06-23T14:03:59.808Z,30.87
2018-06-23T14:08:54.305Z,30.59
2018-06-23T14:13:48.904Z,30.96
2018-06-23T14:20:12.614Z,30.30
2018-06-23T14:25:07.160Z,30.63
2018-06-23T14:30:01.973Z,29.50
2018-06-23T14:34:56.620Z,30.32
2018-06-23T14:39:51.232Z,30.15
2018-06-23T14:44:45.759Z,29.78
2018-06-23T14:49:40.381Z,29.19
2018-06-23T14:54:35.068Z,29.82
2018-06-23T14:59:30.012Z,30.01
2018-06-23T15:04:24.585Z,29.79
2018-06-23T15:09:35.848Z,30.25
2018-06-23T15:14:30.439Z,30.21
2018-06-23T15:19:25.005Z,29.37
2018-06-23T15:24:19.684Z,30.19
2018-06-23T15:29:14.308Z,30.47
2018-06-23T15:34:08.843Z,30.89
2018-06-23T15:39:03.717Z,30.75
2018-06-23T15:43:58.367Z,30.77
2018-06-23T15:48:52.904Z,32.85
2018-06-23T15:53:47.488Z,33.46
2018-06-23T15:58:42.066Z,33.34
2018-06-23T16:03:36.717Z,34.40
2018-06-23T16:08:31.287Z,33.15
2018-06-23T16:13:25.857Z,32.26
2018-06-23T16:18:20.543Z,32.86
2018-06-23T16:23:15.351Z,31.97
2018-06-23T16:28:10.108Z,32.46
2018-06-23T16:33:04.725Z,31.40
2018-06-23T16:37:59.281Z,32.45
2018-06-23T16:42:53.885Z,32.15
2018-06-23T16:47:48.584Z,31.84
2018-06-23T16:52:43.515Z,33.09
2018-06-23T16:57:38.286Z,31.81
2018-06-23T17:02:33.229Z,31.19
2018-06-23T17:07:27.824Z,31.68
2018-06-23T17:12:23.011Z,32.30
2018-06-23T17:17:17.542Z,33.68
2018-06-23T17:22:12.650Z,33.12
2018-06-23T17:27:07.398Z,34.33
2018-06-23T17:32:01.897Z,33.85
2018-06-23T17:36:56.578Z,34.80
2018-06-23T17:41:51.404Z,35.33
2018-06-23T17:46:46.138Z,34.36
2018-06-23T17:51:40.654Z,36.44
2018-06-23T17:56:35.374Z,35.14
2018-06-23T18:01:30.047Z,35.13
2018-06-23T18:06:24.713Z,36.49
2018-06-23T18:11:19.466Z,36.39
2018-06-23T18:16:14.301Z,38.26
2018-06-23T18:21:08.961Z,37.50
2018-06-23T18:26:03.647Z,38.58
2018-06-23T18:30:58.085Z,38.78
2018-06-23T18:35:52.722Z,39.35
2018-06-23T18:40:47.232Z,39.89
2018-06-23T18:45:41.936Z,40.03
2018-06-23T18:50:36.439Z,39.67
2018-06-23T18:55:31.025Z,38.02
2018-06-23T19:00:25.658Z,37.81
2018-06-23T19:05:20.357Z,39.94
2018-06-23T19:10:15.053Z,41.56
2018-06-23T19:15:09.706Z,41.64
2018-06-23T19:20:05.133Z,42.81
2018-06-23T19:24:59.794Z,42.54
2018-06-23T19:29:54.516Z,42.92
2018-06-23T19:34:49.138Z,43.59
2018-06-23T19:39:43.764Z,44.07
2018-06-23T19:44:38.456Z,43.62
2018-06-23T19:49:33.010Z,44.74
2018-06-23T19:54:27.589Z,44.79
2018-06-23T19:59:22.286Z,45.36
2018-06-23T20:04:16.766Z,45.16
2018-06-23T20:09:11.333Z,46.24
2018-06-23T20:14:06.308Z,45.83
2018-06-23T20:19:00.961Z,46.86
2018-06-23T20:23:55.499Z,46.73
2018-06-23T20:28:50.064Z,47.65
2018-06-23T20:33:44.652Z,48.42
2018-06-23T20:38:39.241Z,48.88
2018-06-23T20:43:33.861Z,48.64
2018-06-23T20:48:28.434Z,48.41
2018-06-23T20:53:23.144Z,49.46
2018-06-23T20:58:17.870Z,49.55
2018-06-23T21:03:12.386Z,49.83
2018-06-23T21:08:06.993Z,49.96
2018-06-23T21:13:01.930Z,49.46
2018-06-23T21:17:56.589Z,50.40
2018-06-23T21:22:51.344Z,50.12
2018-06-23T21:27:45.837Z,50.20
2018-06-23T21:32:40.332Z,49.21
2018-06-23T21:37:36.197Z,48.87
2018-06-23T21:42:30.785Z,48.58
2018-06-23T21:47:25.568Z,48.32
2018-06-23T21:52:20.086Z,48.52
2018-06-23T21:57:14.603Z,48.56
2018-06-23T22:02:09.213Z,48.62
2018-06-23T22:07:03.874Z,48.31
2018-06-23T22:11:58.507Z,48.86
2018-06-23T22:16:53.086Z,48.19
2018-06-23T22:21:47.826Z,48.18
2018-06-23T22:26:42.428Z,47.66
2018-06-23T22:31:36.642Z,47.84
2018-06-23T22:36:31.236Z,48.75
2018-06-23T22:41:25.939Z,49.19
2018-06-23T22:46:20.439Z,48.59
2018-06-23T22:51:14.986Z,49.43
2018-06-23T22:56:09.588Z,49.54
2018-06-23T23:01:04.120Z,49.40
2018-06-23T23:05:58.668Z,50.34
2018-06-23T23:10:52.888Z,51.54
2018-06-23T23:15:47.424Z,51.34
2018-06-23T23:20:41.995Z,51.58
2018-06-23T23:25:36.598Z,52.46
2018-06-23T23:30:31.081Z,52.62
2018-06-23T23:35:25.653Z,53.63
2018-06-23T23:40:20.228Z,53.61
2018-06-23T23:45:14.857Z,54.38
2018-06-23T23:50:09.459Z,54.48
2018-06-23T23:55:04.016Z,54.38
2018-06-23T23:59:58.693Z,54.27
